Time;durP1;ratioP1;P1;durP2;ratioP2;P2;SDS_P1;SDS_P2;PMS_P1;PMS_P2;Temp;Humidity;BMP_temperature;BMP_pressure;BME280_temperature;BME280_humidity;BME280_pressure;Samples;Min_cycle;Max_cycle;Signal;HPM_P1;HPM_P2
2023/12/18 00:04:33;;;;;;;38.10;12.77;;;;;;;7.12;100.00;102938.06;10436475;28;20037;-77
2023/12/18 00:09:33;;;;;;;28.45;12.13;;;;;;;7.08;100.00;102921.13;10430855;28;20041;-77
2023/12/18 00:14:34;;;;;;;32.65;13.07;;;;;;;7.13;100.00;102908.78;10403448;28;20041;-77
2023/12/18 00:19:34;;;;;;;28.23;12.23;;;;;;;7.05;100.00;102891.38;10436732;28;20036;-77
2023/12/18 00:24:35;;;;;;;25.00;12.45;;;;;;;7.04;100.00;102881.44;10419547;28;20064;-77
2023/12/18 00:29:35;;;;;;;26.45;11.32;;;;;;;7.10;100.00;102900.94;10419905;28;20041;-77
2023/12/18 00:34:36;;;;;;;31.25;12.93;;;;;;;7.10;100.00;102895.44;10436853;28;20059;-75
2023/12/18 00:39:36;;;;;;;28.63;12.25;;;;;;;7.04;100.00;102875.97;10436495;28;20045;-76
2023/12/18 00:44:36;;;;;;;32.25;12.05;;;;;;;7.10;100.00;102889.97;10408928;28;20037;-77
2023/12/18 00:49:37;;;;;;;31.17;12.18;;;;;;;7.06;100.00;102884.84;10439440;28;20085;-75
2023/12/18 00:54:38;;;;;;;24.48;12.05;;;;;;;7.07;100.00;102875.59;10413697;28;20065;-74
2023/12/18 00:59:38;;;;;;;35.90;13.80;;;;;;;7.18;100.00;102888.03;10427154;28;20057;-76
2023/12/18 01:04:38;;;;;;;35.50;14.10;;;;;;;7.14;100.00;102866.66;10427331;28;20052;-76
2023/12/18 01:09:39;;;;;;;32.75;13.38;;;;;;;7.07;100.00;102867.41;10443369;28;20033;-75
2023/12/18 01:14:39;;;;;;;30.17;13.20;;;;;;;7.14;100.00;102878.47;10424920;28;20059;-75
2023/12/18 01:19:40;;;;;;;25.65;13.02;;;;;;;7.14;100.00;102891.31;10425476;28;20156;-76
2023/12/18 01:24:40;;;;;;;29.58;13.73;;;;;;;7.09;100.00;102880.91;10409964;28;20037;-76
2023/12/18 01:29:41;;;;;;;27.45;13.00;;;;;;;7.06;100.00;102871.16;10460751;28;20053;-76
2023/12/18 01:34:41;;;;;;;30.02;13.93;;;;;;;7.10;100.00;102882.59;10460213;28;20044;-76
2023/12/18 01:39:42;;;;;;;28.92;13.90;;;;;;;7.06;100.00;102879.38;10415035;28;20107;-76
2023/12/18 01:44:42;;;;;;;30.95;14.10;;;;;;;7.08;100.00;102876.44;10440220;28;20324;-76
2023/12/18 01:49:43;;;;;;;27.85;14.07;;;;;;;7.10;100.00;102879.03;10441698;28;20044;-75
2023/12/18 01:54:44;;;;;;;34.03;15.25;;;;;;;7.04;100.00;102866.91;10424581;28;20076;-76
2023/12/18 01:59:44;;;;;;;30.92;13.60;;;;;;;7.00;100.00;102852.69;10424895;28;20056;-75
2023/12/18 02:04:45;;;;;;;40.95;16.23;;;;;;;6.97;100.00;102849.50;10407535;28;20965;-76
2023/12/18 02:09:46;;;;;;;31.27;13.07;;;;;;;7.11;100.00;102869.75;10421335;28;20066;-76
2023/12/18 02:14:46;;;;;;;29.52;13.40;;;;;;;7.08;100.00;102866.34;10423909;28;20029;-76
2023/12/18 02:19:46;;;;;;;24.88;12.65;;;;;;;7.12;100.00;102863.25;10441383;28;20558;-75
2023/12/18 02:24:47;;;;;;;32.55;12.93;;;;;;;7.19;100.00;102850.50;10458209;28;20033;-76
2023/12/18 02:29:47;;;;;;;22.58;11.68;;;;;;;7.17;100.00;102847.09;10458303;28;20037;-76
2023/12/18 02:34:48;;;;;;;29.67;13.20;;;;;;;7.13;100.00;102841.16;10430863;28;20174;-76
2023/12/18 02:39:49;;;;;;;31.45;13.93;;;;;;;7.17;100.00;102845.25;10438077;28;20041;-76
2023/12/18 02:44:49;;;;;;;25.33;12.95;;;;;;;7.21;100.00;102848.44;10439950;28;20123;-76
2023/12/18 02:49:50;;;;;;;26.17;12.10;;;;;;;7.20;100.00;102847.59;10407283;28;20044;-75
2023/12/18 02:54:50;;;;;;;33.15;13.00;;;;;;;7.19;100.00;102843.16;10418743;28;20041;-76
2023/12/18 02:59:50;;;;;;;27.73;11.57;;;;;;;7.23;100.00;102849.13;10438567;28;20044;-76
2023/12/18 03:04:51;;;;;;;23.40;11.48;;;;;;;7.20;100.00;102842.13;10437509;28;20247;-76
2023/12/18 03:09:52;;;;;;;29.35;13.02;;;;;;;7.25;100.00;102833.34;10421648;28;20044;-77
2023/12/18 03:14:52;;;;;;;23.70;13.27;;;;;;;7.28;100.00;102843.94;10405640;28;20044;-76
2023/12/18 03:19:53;;;;;;;27.80;13.40;;;;;;;7.27;100.00;102843.06;10412545;28;20044;-75
2023/12/18 03:24:53;;;;;;;32.13;13.75;;;;;;;7.14;100.00;102811.88;10421874;28;20044;-76
2023/12/18 03:29:54;;;;;;;27.90;12.75;;;;;;;7.22;100.00;102825.50;10421084;28;20041;-74
2023/12/18 03:34:54;;;;;;;29.08;12.45;;;;;;;7.20;100.00;102814.72;10421578;28;20154;-77
2023/12/18 03:39:55;;;;;;;34.38;13.38;;;;;;;7.32;100.00;102811.53;10418369;28;20049;-76
2023/12/18 03:44:55;;;;;;;29.63;12.15;;;;;;;7.21;100.00;102793.66;10415569;28;20037;-76
2023/12/18 03:49:56;;;;;;;28.90;12.90;;;;;;;7.27;100.00;102792.91;10416886;28;20036;-76
2023/12/18 03:54:56;;;;;;;35.88;14.23;;;;;;;7.32;100.00;102806.06;10435759;28;20100;-76
2023/12/18 03:59:57;;;;;;;28.40;13.60;;;;;;;7.29;100.00;102801.81;10455054;28;20064;-77
2023/12/18 04:04:58;;;;;;;29.75;13.23;;;;;;;7.28;100.00;102805.59;10404300;28;20316;-77
2023/12/18 04:09:58;;;;;;;30.13;13.27;;;;;;;7.29;100.00;102796.31;10419783;28;20405;-77
2023/12/18 04:14:58;;;;;;;28.15;13.10;;;;;;;7.34;100.00;102804.84;10445089;28;20515;-74
2023/12/18 04:19:59;;;;;;;31.70;13.80;;;;;;;7.33;100.00;102799.56;10445270;28;21660;-77
2023/12/18 04:24:59;;;;;;;32.72;14.05;;;;;;;7.31;100.00;102801.63;10445226;28;20442;-76
2023/12/18 04:30:00;;;;;;;22.60;12.88;;;;;;;7.30;100.00;102803.53;10411868;28;20051;-76
2023/12/18 04:35:01;;;;;;;24.27;13.23;;;;;;;7.31;100.00;102788.75;10428232;28;20041;-76
2023/12/18 04:40:03;;;;;;;26.98;11.60;;;;;;;7.40;100.00;102781.31;10444123;28;20032;-77
2023/12/18 04:45:03;;;;;;;27.40;12.57;;;;;;;7.38;100.00;102778.78;10410928;28;20029;-76
2023/12/18 04:50:04;;;;;;;23.13;11.35;;;;;;;7.33;100.00;102770.25;10410070;28;20033;-76
2023/12/18 04:55:05;;;;;;;26.95;12.10;;;;;;;7.44;100.00;102799.09;10427257;28;20041;-77
2023/12/18 05:00:06;;;;;;;31.75;14.57;;;;;;;7.44;100.00;102785.38;10411259;28;20053;-77
2023/12/18 05:05:07;;;;;;;33.78;12.77;;;;;;;7.47;100.00;102777.66;10435222;28;20060;-76
2023/12/18 05:10:08;;;;;;;25.08;11.80;;;;;;;7.46;100.00;102756.78;10442358;28;20075;-75
2023/12/18 05:15:08;;;;;;;41.10;13.38;;;;;;;7.48;100.00;102757.44;10442887;28;20083;-75
2023/12/18 05:20:11;;;;;;;23.17;12.13;;;;;;;7.51;100.00;102755.38;10443595;28;20575;-76
2023/12/18 05:25:12;;;;;;;25.58;11.75;;;;;;;7.52;100.00;102766.13;10443111;28;20063;-75
2023/12/18 05:30:12;;;;;;;28.50;12.65;;;;;;;7.40;100.00;102749.31;10435785;28;20045;-77
2023/12/18 05:35:13;;;;;;;27.48;12.57;;;;;;;7.56;100.00;102781.16;10423863;28;20044;-77
2023/12/18 05:40:13;;;;;;;24.27;10.90;;;;;;;7.56;100.00;102796.75;10416166;28;20499;-78
2023/12/18 05:45:14;;;;;;;19.92;9.93;;;;;;;7.50;100.00;102775.56;10440956;28;20485;-76
2023/12/18 05:50:14;;;;;;;31.17;11.32;;;;;;;7.55;100.00;102773.97;10425093;28;20041;-77
2023/12/18 05:55:15;;;;;;;23.17;10.55;;;;;;;7.53;100.00;102775.22;10459199;28;20444;-76
2023/12/18 06:00:19;;;;;;;21.48;9.52;;;;;;;7.59;100.00;102766.25;10439480;28;20037;-76
2023/12/18 06:05:19;;;;;;;29.27;12.73;;;;;;;7.62;100.00;102774.06;10424750;28;20068;-75
2023/12/18 06:10:20;;;;;;;25.25;10.88;;;;;;;7.52;100.00;102751.56;10440486;28;20040;-76
2023/12/18 06:15:20;;;;;;;27.90;11.13;;;;;;;7.26;100.00;102711.78;10432524;28;20051;-75
2023/12/18 06:20:20;;;;;;;29.67;11.23;;;;;;;7.62;100.00;102768.59;10440913;28;20060;-77
2023/12/18 06:25:21;;;;;;;20.35;10.93;;;;;;;7.65;100.00;102779.19;10435351;28;20038;-75
2023/12/18 06:30:21;;;;;;;25.30;11.35;;;;;;;7.63;100.00;102784.00;10423304;28;20033;-77
2023/12/18 06:35:22;;;;;;;29.33;12.15;;;;;;;7.61;100.00;102799.78;10457245;28;20375;-76
2023/12/18 06:40:22;;;;;;;24.48;12.07;;;;;;;7.61;100.00;102786.94;10439505;28;20063;-76
2023/12/18 06:45:23;;;;;;;40.00;13.13;;;;;;;7.63;100.00;102795.81;10407343;28;20029;-76
2023/12/18 06:50:23;;;;;;;21.05;11.40;;;;;;;7.66;100.00;102800.06;10439237;28;20041;-76
2023/12/18 06:55:24;;;;;;;33.17;12.75;;;;;;;7.59;100.00;102786.28;10416877;28;20049;-76
2023/12/18 07:00:25;;;;;;;27.48;12.73;;;;;;;7.58;100.00;102783.72;10437372;28;20457;-76
2023/12/18 07:05:28;;;;;;;24.15;12.60;;;;;;;7.57;100.00;102763.69;10421750;28;20053;-76
2023/12/18 07:10:29;;;;;;;32.50;12.98;;;;;;;7.64;100.00;102775.56;10423139;28;20032;-77
2023/12/18 07:15:30;;;;;;;30.67;12.73;;;;;;;7.70;100.00;102784.94;10421608;28;20033;-76
2023/12/18 07:20:30;;;;;;;33.20;14.32;;;;;;;7.62;100.00;102776.81;10454470;28;20646;-76
2023/12/18 07:25:30;;;;;;;30.75;13.48;;;;;;;7.64;100.00;102782.97;10405700;28;20060;-76
2023/12/18 07:30:31;;;;;;;39.00;12.93;;;;;;;7.71;100.00;102805.84;10455751;28;20098;-75
2023/12/18 07:35:32;;;;;;;31.85;14.05;;;;;;;7.66;100.00;102794.59;10420321;28;20052;-76
2023/12/18 07:40:32;;;;;;;22.90;13.30;;;;;;;7.66;100.00;102794.59;10435972;28;20037;-77
2023/12/18 07:45:32;;;;;;;35.20;14.15;;;;;;;7.66;100.00;102795.44;10455484;28;20052;-76
2023/12/18 07:50:33;;;;;;;25.73;13.70;;;;;;;7.71;100.00;102800.38;10434850;28;20037;-76
2023/12/18 07:55:34;;;;;;;32.40;15.65;;;;;;;7.69;100.00;102783.25;10435937;28;20555;-76
2023/12/18 08:00:34;;;;;;;30.33;13.73;;;;;;;7.65;100.00;102768.22;10434340;28;20053;-77
2023/12/18 08:05:34;;;;;;;37.88;15.35;;;;;;;7.62;100.00;102782.28;10434063;28;20048;-75
2023/12/18 08:10:35;;;;;;;29.35;13.25;;;;;;;7.72;100.00;102791.09;10419272;28;20056;-76
2023/12/18 08:15:35;;;;;;;35.85;13.70;;;;;;;7.66;100.00;102780.88;10436431;28;20041;-77
2023/12/18 08:20:36;;;;;;;30.35;14.40;;;;;;;7.74;100.00;102782.69;10453728;28;20056;-76
2023/12/18 08:25:36;;;;;;;29.50;14.25;;;;;;;7.74;100.00;102797.25;10453819;28;20044;-77
2023/12/18 08:30:37;;;;;;;26.25;12.85;;;;;;;7.78;100.00;102779.38;10452045;28;20029;-76
2023/12/18 08:35:37;;;;;;;32.65;14.68;;;;;;;7.72;100.00;102774.66;10408336;28;20044;-76
2023/12/18 08:40:38;;;;;;;26.45;13.40;;;;;;;7.71;100.00;102767.47;10434126;28;20037;-76
2023/12/18 08:45:38;;;;;;;28.60;16.20;;;;;;;7.70;100.00;102771.25;10419379;28;20032;-77
2023/12/18 08:50:39;;;;;;;29.33;14.68;;;;;;;6.97;100.00;102655.06;10434797;28;20069;-76
2023/12/18 08:55:39;;;;;;;29.73;14.95;;;;;;;7.70;100.00;102773.13;10419074;28;20049;-76
2023/12/18 09:00:40;;;;;;;33.58;16.65;;;;;;;7.63;100.00;102764.81;10417696;28;20370;-77
2023/12/18 09:05:40;;;;;;;31.85;17.00;;;;;;;7.63;100.00;102776.63;10427685;28;20043;-76
2023/12/18 09:10:41;;;;;;;34.38;16.15;;;;;;;7.59;100.00;102774.47;10473426;28;20055;-76
2023/12/18 09:15:41;;;;;;;39.70;18.20;;;;;;;7.59;100.00;102782.69;10437446;28;20045;-76
2023/12/18 09:20:42;;;;;;;38.22;17.50;;;;;;;7.60;100.00;102778.88;10474239;28;20086;-76
2023/12/18 09:25:42;;;;;;;33.95;17.27;;;;;;;7.64;100.00;102793.91;10442446;28;20091;-77
2023/12/18 09:30:43;;;;;;;43.50;17.52;;;;;;;7.67;100.00;102777.13;10462201;28;20872;-76
2023/12/18 09:35:43;;;;;;;33.17;17.05;;;;;;;7.67;100.00;102772.47;10458147;28;20112;-76
2023/12/18 09:40:47;;;;;;;43.78;19.13;;;;;;;7.78;100.00;102768.41;10451192;28;20103;-76
2023/12/18 09:45:48;;;;;;;39.05;18.20;;;;;;;7.78;100.00;102757.44;10413793;28;20076;-77
2023/12/18 09:50:48;;;;;;;36.10;16.23;;;;;;;7.86;100.00;102765.56;10431406;28;20114;-76
2023/12/18 09:55:51;;;;;;;30.88;16.58;;;;;;;7.87;100.00;102770.03;10454633;28;20472;-76
2023/12/18 10:00:52;;;;;;;34.25;18.08;;;;;;;7.88;100.00;102747.03;10440545;28;20039;-76
2023/12/18 10:05:52;;;;;;;35.70;16.55;;;;;;;7.83;100.00;102738.53;10458730;28;20346;-77
2023/12/18 10:10:53;;;;;;;34.72;17.25;;;;;;;7.79;100.00;102720.78;10410090;28;20029;-77
2023/12/18 10:15:54;;;;;;;37.53;17.55;;;;;;;7.96;100.00;102721.41;10444770;28;20045;-78
2023/12/18 10:20:54;;;;;;;36.55;17.70;;;;;;;7.91;100.00;102706.56;10452223;28;20045;-77
2023/12/18 10:25:54;;;;;;;33.58;15.63;;;;;;;7.99;100.00;102706.44;10440036;28;20029;-77
2023/12/18 10:30:56;;;;;;;34.50;17.70;;;;;;;7.93;100.00;102682.53;10439025;28;20048;-78
2023/12/18 10:35:56;;;;;;;28.88;16.10;;;;;;;8.04;100.00;102685.63;10467510;28;20047;-77
2023/12/18 10:40:59;;;;;;;30.33;16.55;;;;;;;8.07;100.00;102700.84;10452290;28;20047;-79
2023/12/18 10:46:02;;;;;;;30.40;17.17;;;;;;;7.24;100.00;102553.06;10436286;28;20041;-81
2023/12/18 10:51:02;;;;;;;30.40;15.38;;;;;;;8.17;100.00;102704.13;10444325;28;20454;-78
2023/12/18 10:56:04;;;;;;;39.55;16.77;;;;;;;8.17;100.00;102695.91;10428265;28;20100;-79
2023/12/18 11:01:04;;;;;;;30.33;17.30;;;;;;;8.18;100.00;102675.63;10418382;28;20048;-79
2023/12/18 11:06:05;;;;;;;32.80;17.60;;;;;;;8.35;100.00;102679.00;10433984;28;20051;-78
2023/12/18 11:11:05;;;;;;;37.20;16.40;;;;;;;8.32;100.00;102671.16;10457745;28;20063;-79
2023/12/18 11:16:06;;;;;;;34.58;18.52;;;;;;;8.46;100.00;102673.03;10438474;28;20069;-77
2023/12/18 11:21:06;;;;;;;38.92;17.50;;;;;;;8.44;100.00;102663.28;10453672;28;20047;-78
2023/12/18 11:26:10;;;;;;;35.83;17.02;;;;;;;8.37;100.00;102657.72;10456179;28;20068;-77
2023/12/18 11:31:13;;;;;;;36.45;18.25;;;;;;;8.39;100.00;102641.03;10459881;28;20036;-78
2023/12/18 11:36:17;;;;;;;30.27;16.35;;;;;;;8.39;100.00;102655.63;10432179;28;20065;-78
2023/12/18 11:41:40;;;;;;;33.20;16.92;;;;;;;8.34;100.00;102671.81;10432061;28;20037;-78
2023/12/18 11:46:41;;;;;;;32.45;16.35;;;;;;;8.27;100.00;102641.56;10431052;28;20040;-77
2023/12/18 11:51:44;;;;;;;35.83;16.40;;;;;;;7.43;100.00;102532.44;10448393;28;20055;-78
2023/12/18 11:56:45;;;;;;;35.58;17.58;;;;;;;8.32;100.00;102637.38;10431064;28;20041;-79
2023/12/18 12:01:47;;;;;;;31.98;16.35;;;;;;;8.23;100.00;102634.75;10424889;28;20062;-78
2023/12/18 12:06:47;;;;;;;31.58;18.60;;;;;;;8.28;100.00;102643.25;10425238;28;20041;-77
2023/12/18 12:11:48;;;;;;;33.05;16.70;;;;;;;8.25;100.00;102624.44;10405006;28;20045;-78
2023/12/18 12:17:01;;;;;;;30.50;16.58;;;;;;;8.24;100.00;102630.97;10419939;28;20048;-77
2023/12/18 12:22:02;;;;;;;38.47;16.23;;;;;;;8.27;100.00;102632.50;10462779;28;20096;-78
2023/12/18 12:27:02;;;;;;;33.53;17.95;;;;;;;8.25;100.00;102632.66;10447843;28;20103;-78
2023/12/18 12:32:03;;;;;;;39.63;19.98;;;;;;;8.24;100.00;102619.97;10430567;28;20037;-77
2023/12/18 12:37:05;;;;;;;30.67;15.82;;;;;;;8.22;100.00;102604.78;10465302;28;20041;-79
2023/12/18 12:42:05;;;;;;;39.75;19.17;;;;;;;8.11;100.00;102592.44;10439453;28;20053;-78
2023/12/18 12:47:06;;;;;;;36.03;18.08;;;;;;;8.22;100.00;102605.59;10439653;28;20420;-76
2023/12/18 12:52:06;;;;;;;29.58;17.98;;;;;;;8.18;100.00;102587.00;10440946;28;20041;-77
2023/12/18 12:57:07;;;;;;;37.55;18.23;;;;;;;8.22;100.00;102591.06;10461364;28;20053;-78
2023/12/18 13:02:08;;;;;;;33.53;17.13;;;;;;;8.12;100.00;102572.16;10430681;28;20056;-78
2023/12/18 13:07:08;;;;;;;36.65;19.08;;;;;;;8.22;100.00;102569.94;10419340;28;20072;-77
2023/12/18 13:12:12;;;;;;;33.85;20.30;;;;;;;8.24;100.00;102580.72;10438369;28;20044;-78
2023/12/18 13:17:13;;;;;;;38.47;19.77;;;;;;;8.22;100.00;102558.13;10445017;28;20074;-78
2023/12/18 13:22:13;;;;;;;39.42;19.55;;;;;;;8.22;100.00;102564.47;10436503;28;20151;-78
2023/12/18 13:27:14;;;;;;;37.38;20.77;;;;;;;8.15;100.00;102549.00;10454202;28;20037;-77
2023/12/18 13:32:15;;;;;;;33.47;17.75;;;;;;;8.18;100.00;102554.91;10454669;28;20116;-76
2023/12/18 13:37:16;;;;;;;36.58;18.52;;;;;;;8.10;100.00;102530.38;10454602;28;20044;-75
2023/12/18 13:42:16;;;;;;;32.30;17.98;;;;;;;8.14;100.00;102525.34;10407309;28;20475;-75
2023/12/18 13:47:18;;;;;;;39.75;17.85;;;;;;;8.12;100.00;102489.88;10458885;28;20047;-74
2023/12/18 13:52:18;;;;;;;39.63;17.73;;;;;;;8.17;100.00;102512.09;10407591;28;20382;-76
2023/12/18 13:57:18;;;;;;;29.55;17.23;;;;;;;7.85;100.00;102456.75;10440761;28;20087;-74
2023/12/18 14:02:19;;;;;;;35.13;18.98;;;;;;;8.16;100.00;102507.63;10421056;28;20048;-74
2023/12/18 14:07:19;;;;;;;42.72;19.15;;;;;;;8.11;100.00;102499.16;10456974;28;20182;-75
2023/12/18 14:12:20;;;;;;;33.65;17.67;;;;;;;8.11;100.00;102526.59;10461939;28;20053;-74
2023/12/18 14:17:20;;;;;;;34.95;19.42;;;;;;;7.99;100.00;102518.03;10454787;28;20041;-74
2023/12/18 14:22:21;;;;;;;35.38;19.45;;;;;;;8.09;100.00;102518.56;10439164;28;20418;-74
2023/12/18 14:27:21;;;;;;;38.78;19.80;;;;;;;8.03;100.00;102491.91;10412817;28;20451;-75
2023/12/18 14:32:22;;;;;;;40.03;19.10;;;;;;;8.11;100.00;102488.19;10423814;28;20044;-75
2023/12/18 14:37:22;;;;;;;36.60;19.65;;;;;;;8.07;100.00;102493.22;10439721;28;20094;-75
2023/12/18 14:42:23;;;;;;;40.92;19.77;;;;;;;8.07;100.00;102470.44;10431078;28;20361;-75
2023/12/18 14:47:23;;;;;;;33.38;17.85;;;;;;;8.09;100.00;102479.31;10441145;28;20044;-74
2023/12/18 14:52:24;;;;;;;37.40;19.40;;;;;;;8.08;100.00;102485.81;10415237;28;20108;-75
2023/12/18 14:57:24;;;;;;;33.38;19.13;;;;;;;8.06;100.00;102485.16;10415746;28;20508;-75
2023/12/18 15:02:25;;;;;;;30.70;17.92;;;;;;;8.06;100.00;102496.16;10437121;28;20055;-75
2023/12/18 15:07:26;;;;;;;35.40;19.25;;;;;;;8.09;100.00;102490.28;10406860;28;20045;-74
2023/12/18 15:12:26;;;;;;;28.00;16.73;;;;;;;8.08;100.00;102477.59;10428564;28;20037;-75
2023/12/18 15:17:27;;;;;;;35.33;17.40;;;;;;;8.12;100.00;102476.16;10450684;28;20032;-75
2023/12/18 15:22:27;;;;;;;33.95;17.63;;;;;;;8.00;100.00;102458.53;10471922;28;20648;-74
2023/12/18 15:27:28;;;;;;;34.60;17.25;;;;;;;8.07;100.00;102454.81;10449573;28;22068;-74
2023/12/18 15:32:28;;;;;;;34.33;17.70;;;;;;;7.74;100.00;102418.88;10446871;28;20059;-74
2023/12/18 15:37:29;;;;;;;31.63;19.33;;;;;;;8.07;100.00;102471.28;10449340;28;20044;-75
2023/12/18 15:42:30;;;;;;;41.38;19.92;;;;;;;8.16;100.00;102473.88;10450136;28;20049;-74
2023/12/18 15:47:30;;;;;;;36.20;19.67;;;;;;;8.11;100.00;102449.78;10470811;28;20036;-75
2023/12/18 15:52:31;;;;;;;30.85;20.60;;;;;;;8.05;100.00;102421.25;10458118;28;20037;-74
2023/12/18 15:57:31;;;;;;;37.40;19.88;;;;;;;8.08;100.00;102422.72;10433868;28;20068;-74
2023/12/18 16:02:32;;;;;;;43.65;21.33;;;;;;;8.11;100.00;102437.97;10455219;28;20118;-72
2023/12/18 16:07:33;;;;;;;36.17;19.70;;;;;;;8.10;100.00;102431.63;10467502;28;22954;-74
2023/12/18 16:12:33;;;;;;;34.45;18.55;;;;;;;8.08;100.00;102447.41;10436451;28;20041;-75
2023/12/18 16:17:34;;;;;;;30.45;19.65;;;;;;;8.05;100.00;102428.63;10458763;28;20036;-74
2023/12/18 16:22:35;;;;;;;43.35;22.88;;;;;;;8.14;100.00;102421.94;10450947;28;20093;-73
2023/12/18 16:27:35;;;;;;;36.80;20.15;;;;;;;8.05;100.00;102390.22;10462330;28;20967;-75
2023/12/18 16:32:36;;;;;;;34.78;20.27;;;;;;;8.16;100.00;102411.59;10468363;28;20493;-75
2023/12/18 16:37:36;;;;;;;39.83;21.13;;;;;;;8.13;100.00;102397.47;10411071;28;20033;-74
2023/12/18 16:42:37;;;;;;;43.88;21.38;;;;;;;8.13;100.00;102391.97;10466080;28;20063;-75
2023/12/18 16:47:37;;;;;;;37.40;21.77;;;;;;;8.11;100.00;102372.97;10416065;28;20044;-75
2023/12/18 16:52:40;;;;;;;40.63;21.13;;;;;;;8.02;100.00;102357.72;10431560;28;20573;-75
2023/12/18 16:57:41;;;;;;;38.42;22.08;;;;;;;8.03;100.00;102386.84;10434760;28;20100;-75
2023/12/18 17:02:42;;;;;;;44.63;24.23;;;;;;;7.60;100.00;102351.28;10460571;28;20041;-76
2023/12/18 17:07:42;;;;;;;43.42;23.15;;;;;;;7.86;100.00;102380.81;10436113;28;20037;-75
2023/12/18 17:12:43;;;;;;;40.35;21.85;;;;;;;7.94;100.00;102368.81;10455038;28;20462;-74
2023/12/18 17:17:43;;;;;;;37.05;19.98;;;;;;;7.45;100.00;102291.09;10448152;28;20040;-75
2023/12/18 17:22:44;;;;;;;36.97;21.70;;;;;;;7.96;100.00;102342.94;10478333;28;20037;-74
2023/12/18 17:27:44;;;;;;;39.67;21.38;;;;;;;7.99;100.00;102336.19;10465029;28;20032;-75
2023/12/18 17:32:45;;;;;;;44.60;23.92;;;;;;;7.95;100.00;102346.69;10481746;28;20043;-75
2023/12/18 17:37:45;;;;;;;41.10;21.42;;;;;;;7.98;100.00;102354.53;10465308;28;20032;-73
2023/12/18 17:42:46;;;;;;;42.28;22.17;;;;;;;7.93;100.00;102345.22;10417160;28;20048;-74
2023/12/18 17:47:46;;;;;;;37.85;21.60;;;;;;;7.89;100.00;102320.91;10454328;28;20044;-74
2023/12/18 17:52:47;;;;;;;39.15;23.42;;;;;;;7.82;100.00;102303.59;10477432;28;20045;-75
2023/12/18 17:57:47;;;;;;;46.67;23.40;;;;;;;7.77;100.00;102292.41;10473041;28;20037;-73
2023/12/18 18:02:47;;;;;;;39.65;23.80;;;;;;;7.85;100.00;102300.47;10431538;28;20083;-74
2023/12/18 18:07:48;;;;;;;47.00;25.55;;;;;;;7.87;100.00;102295.63;10441811;28;20044;-75
2023/12/18 18:12:48;;;;;;;49.15;25.75;;;;;;;7.60;100.00;102234.28;10457495;28;20041;-73
2023/12/18 18:17:49;;;;;;;48.28;24.77;;;;;;;7.81;100.00;102273.63;10457736;28;20045;-74
2023/12/18 18:22:49;;;;;;;47.50;23.85;;;;;;;7.93;100.00;102307.66;10422156;28;20071;-73
2023/12/18 18:27:50;;;;;;;40.97;23.40;;;;;;;7.96;100.00;102314.63;10419704;28;20044;-75
2023/12/18 18:32:52;;;;;;;40.63;24.05;;;;;;;7.95;100.00;102310.22;10456223;28;20645;-74
2023/12/18 18:37:53;;;;;;;42.67;23.27;;;;;;;7.94;100.00;102308.50;10437979;28;20103;-74
2023/12/18 18:42:54;;;;;;;54.35;27.00;;;;;;;7.91;100.00;102311.66;10439023;28;20048;-75
2023/12/18 18:47:54;;;;;;;43.08;24.73;;;;;;;7.95;100.00;102312.94;10424325;28;20054;-74
2023/12/18 18:52:55;;;;;;;51.13;24.65;;;;;;;7.92;100.00;102296.88;10448294;28;20052;-74
2023/12/18 18:57:55;;;;;;;51.83;26.75;;;;;;;7.89;100.00;102309.09;10438469;28;20064;-74
2023/12/18 19:02:56;;;;;;;40.58;26.10;;;;;;;7.88;100.00;102297.31;10449931;28;20059;-74
2023/12/18 19:07:56;;;;;;;50.78;26.55;;;;;;;7.93;100.00;102296.69;10442103;28;20037;-75
2023/12/18 19:12:57;;;;;;;55.22;25.73;;;;;;;7.91;100.00;102295.22;10437059;28;20143;-75
2023/12/18 19:17:57;;;;;;;41.17;24.90;;;;;;;7.83;100.00;102275.13;10435311;28;20099;-75
2023/12/18 19:22:58;;;;;;;46.63;25.85;;;;;;;7.82;100.00;102292.63;10426371;28;20051;-75
2023/12/18 19:27:58;;;;;;;50.03;25.17;;;;;;;7.74;100.00;102278.22;10420717;28;20033;-75
2023/12/18 19:32:59;;;;;;;58.08;27.27;;;;;;;7.87;100.00;102295.63;10437888;28;20044;-75
2023/12/18 19:37:59;;;;;;;50.28;26.13;;;;;;;7.79;100.00;102273.84;10463509;28;20052;-75
2023/12/18 19:43:00;;;;;;;48.20;25.98;;;;;;;7.74;100.00;102265.38;10412836;28;20044;-75
2023/12/18 19:48:01;;;;;;;43.60;25.27;;;;;;;7.77;100.00;102255.88;10436204;28;20033;-76
2023/12/18 19:53:02;;;;;;;45.63;27.13;;;;;;;7.72;100.00;102240.03;10436787;28;20104;-75
2023/12/18 19:58:02;;;;;;;51.03;27.50;;;;;;;7.80;100.00;102239.88;10436681;28;20101;-75
2023/12/18 20:03:04;;;;;;;45.88;27.15;;;;;;;7.79;100.00;102260.13;10430489;28;20105;-75
2023/12/18 20:08:05;;;;;;;45.40;28.85;;;;;;;7.59;100.00;102254.53;10441977;28;20041;-75
2023/12/18 20:13:05;;;;;;;54.70;29.08;;;;;;;7.56;100.00;102267.78;10419146;28;20051;-75
2023/12/18 20:18:06;;;;;;;62.00;33.38;;;;;;;7.55;100.00;102274.31;10416182;28;20057;-74
2023/12/18 20:23:07;;;;;;;51.83;28.88;;;;;;;7.51;100.00;102256.59;10436455;28;20045;-74
2023/12/18 20:28:07;;;;;;;60.22;31.25;;;;;;;7.39;100.00;102231.63;10453858;28;20041;-74
2023/12/18 20:33:08;;;;;;;60.13;30.75;;;;;;;7.57;100.00;102255.78;10446206;28;20045;-75
2023/12/18 20:38:11;;;;;;;53.47;28.80;;;;;;;7.57;100.00;102250.31;10424812;28;20044;-74
2023/12/18 20:43:13;;;;;;;52.17;29.23;;;;;;;7.59;100.00;102245.47;10436428;28;20409;-74
2023/12/18 20:48:13;;;;;;;53.78;30.23;;;;;;;7.56;100.00;102260.38;10460042;28;20513;-74
2023/12/18 20:53:18;;;;;;;57.05;31.05;;;;;;;7.55;100.00;102230.47;10454156;28;20057;-73
2023/12/18 20:58:18;;;;;;;56.08;28.48;;;;;;;7.58;100.00;102241.00;10450451;28;20029;-73
2023/12/18 21:03:19;;;;;;;62.83;31.80;;;;;;;7.52;100.00;102219.88;10449897;28;20064;-74
2023/12/18 21:08:19;;;;;;;54.00;30.38;;;;;;;7.52;100.00;102212.50;10442525;28;20041;-72
2023/12/18 21:13:21;;;;;;;63.45;30.23;;;;;;;7.51;100.00;102212.72;10450170;28;20073;-73
2023/12/18 21:18:22;;;;;;;64.88;31.67;;;;;;;7.52;100.00;102198.81;10448947;28;20045;-72
2023/12/18 21:23:22;;;;;;;64.80;31.30;;;;;;;7.46;100.00;102173.09;10467239;28;20049;-72
2023/12/18 21:28:22;;;;;;;58.03;30.00;;;;;;;7.52;100.00;102176.88;10461643;28;20079;-74
2023/12/18 21:33:23;;;;;;;62.70;31.10;;;;;;;7.44;100.00;102153.25;10464391;28;20044;-74
2023/12/18 21:38:23;;;;;;;62.15;30.38;;;;;;;7.48;100.00;102154.53;10415812;28;20037;-73
2023/12/18 21:43:24;;;;;;;58.88;29.33;;;;;;;7.52;100.00;102162.34;10458865;28;20041;-73
2023/12/18 21:48:24;;;;;;;57.53;29.88;;;;;;;7.53;100.00;102177.75;10467287;28;20037;-74
2023/12/18 21:53:25;;;;;;;62.85;28.88;;;;;;;7.42;100.00;102185.50;10441486;28;20052;-73
2023/12/18 21:58:25;;;;;;;68.43;32.55;;;;;;;7.48;100.00;102184.69;10458780;28;20097;-74
2023/12/18 22:03:26;;;;;;;66.70;30.75;;;;;;;7.40;100.00;102189.44;10423783;28;20116;-73
2023/12/18 22:08:26;;;;;;;72.80;34.13;;;;;;;7.39;100.00;102188.63;10439423;28;20048;-74
2023/12/18 22:13:27;;;;;;;67.78;31.90;;;;;;;7.21;100.00;102147.19;10423149;28;20048;-72
2023/12/18 22:18:27;;;;;;;70.88;34.50;;;;;;;7.34;100.00;102161.00;10423917;28;20115;-73
2023/12/18 22:23:28;;;;;;;61.90;31.00;;;;;;;7.30;100.00;102129.56;10424343;28;20489;-73
2023/12/18 22:28:28;;;;;;;64.72;31.88;;;;;;;6.95;100.00;102098.59;10460348;28;20393;-74
2023/12/18 22:33:29;;;;;;;70.03;33.20;;;;;;;7.22;100.00;102143.41;10422717;28;20037;-73